Newark, NJ

3:27 AM EST en Noviembre 28, 2014 (GMT -0500)
Near Red Bull Arena | Change Station
CLOSE
Current Station
Estación meteorológica personal
Location: Harrison, NJ
Altura: 23 ft
Estaciones meteorológicas cercanas

Alt 23 ft 40.74 °N, 74.15 °W | Updated 11 seconds ago

Scattered Clouds
Nubes dispersas
29.3 ° F
Sensación térmica 29 ° F
N
0.0
Viento Variable Viento desde SE
Gusts 0.0 mph

Hoy
Alta -- | Baja -- ° F
--% Posibilidad de precipitaciones
Ayer
Alta -- | Baja -- ° F
Precip. -- pul
6:58 AM 4:30 PM
Creciente, 38% visible
Presión 30.09 pul
Visibilidad 10.0 Millas
Nubes Nubes dispersas 5000 ft
Vientos helados 29 ° F
Punto de rocío 24 ° F
Humedad 79%
Precipitaciones 0.00 pul
Espesor de la nieve No disponible.
UV 0 de una escala de 12
Polen .10 de una escala de 12
Calidad del aire No disponible.
Flu Activity No disponible.
METAR KEWR 280751Z 31005KT 10SM SCT050 M02/M06 A3010 RMK AO2 SLP190 T10171056 $

More Conditions Fewer Conditions

Presión 30.09 pul
Visibilidad 10.0 Millas
Nubes Nubes dispersas 5000 ft
Vientos helados 29 ° F
Punto de rocío 24 ° F
Humedad 79%
Precipitaciones 0.00 pul
Espesor de la nieve No disponible.
UV 0 de una escala de 12
Polen .10 de una escala de 12
Calidad del aire No disponible.
Flu Activity No disponible.
METAR KEWR 280751Z 31005KT 10SM SCT050 M02/M06 A3010 RMK AO2 SLP190 T10171056 $

More Conditions Fewer Conditions

10-Day Weather Forecast

Almanac

Astronomía

Nov. 28, 2014 Salida Puesta
Hora real
Crepúsculo civil
Crepúsculo náutico
Crepúsculo astronómico
Luna
Horas de luz
Horas de luz
Tomorrow will be .
, % of the Moon is Illuminated

Extremos de hoy

Máximos del estado Bajos del estado

Community

WunderPhotos

Upload Photos

1,774,191 ¡fotos cargadas!

WunderBlogs® & News

Nearby

Calidad del aire

  Calidad del aire Índice AQ Contaminante
Not available.

Grosos de nieve

Estación Profundido Altura

Actividad de terremotos

Ciudad Distance Mag. Tiempo y dato
Magnitud mínima muestra es 2,5.

Temperaturas de aguas costeras

Lugar Temperatura

Estaciones meteorológicas cercanas